GENERAL EDWARD LAWRENCE LOGAN INTL

KBOS (BOS)
Boston, Massachusetts
Towered

Vatsim Metar:
KBOS 250954Z 00000KT 10SM FEW140 BKN250 18/16 A2990 RMK AO2 SLP124 T01830156

No ATC Online

Traffic

Inbound:
Ident
Type
Name
ETA
Phase
UAL449
H/B744
Toby Griffiths EGBB
13:54 Z
Cruse

Outbound:
Ident
Type
Name
Destination
Phase
NRS741
B788
max hyland EGSS
EGKK
Climb